Time;durP1;ratioP1;P1;durP2;ratioP2;P2;SDS_P1;SDS_P2;PMS_P1;PMS_P2;Temp;Humidity;BMP_temperature;BMP_pressure;BME280_temperature;BME280_humidity;BME280_pressure;Samples;Min_cycle;Max_cycle;Signal;HPM_P1;HPM_P2
2021/12/18 00:02:01;;;;;;;43.90;24.10;;;;;;;;;;5036238;28;20193;-65
2021/12/18 00:04:27;;;;;;;36.03;21.47;;;;;;;;;;5049196;28;20210;-66
2021/12/18 00:06:54;;;;;;;35.57;20.93;;;;;;;;;;5031542;28;20191;-65
2021/12/18 00:09:20;;;;;;;35.80;21.40;;;;;;;;;;5048912;28;20171;-66
2021/12/18 00:11:48;;;;;;;35.67;20.67;;;;;;;;;;5036232;28;20183;-66
2021/12/18 00:14:14;;;;;;;37.77;21.73;;;;;;;;;;5034661;28;20202;-65
2021/12/18 00:16:40;;;;;;;37.97;20.60;;;;;;;;;;5017623;28;20179;-64
2021/12/18 00:19:06;;;;;;;34.13;20.43;;;;;;;;;;5017297;28;20206;-65
2021/12/18 00:21:36;;;;;;;33.93;19.77;;;;;;;;;;5017355;28;20183;-65
2021/12/18 00:24:02;;;;;;;33.90;19.77;;;;;;;;;;5016975;28;20203;-65
2021/12/18 00:26:28;;;;;;;39.97;21.60;;;;;;;;;;5016838;28;20229;-64
2021/12/18 00:28:54;;;;;;;36.13;19.50;;;;;;;;;;5034802;28;20211;-65
2021/12/18 00:31:20;;;;;;;38.40;20.10;;;;;;;;;;5020069;28;20217;-65
2021/12/18 00:33:46;;;;;;;38.50;20.70;;;;;;;;;;5020501;28;20207;-65
2021/12/18 00:36:12;;;;;;;38.37;21.97;;;;;;;;;;5020311;28;20174;-65
2021/12/18 00:38:40;;;;;;;38.60;21.53;;;;;;;;;;5037998;28;20262;-65
2021/12/18 00:43:35;;;;;;;39.13;21.53;;;;;;;;;;5038088;28;20292;-66
2021/12/18 00:46:01;;;;;;;38.03;21.87;;;;;;;;;;5038081;28;20171;-65
2021/12/18 00:48:27;;;;;;;46.43;24.23;;;;;;;;;;5037835;28;20203;-65
2021/12/18 00:50:54;;;;;;;42.13;24.33;;;;;;;;;;5037959;28;20175;-66
2021/12/18 00:53:20;;;;;;;39.00;21.83;;;;;;;;;;5037624;28;20245;-64
2021/12/18 00:55:46;;;;;;;38.63;22.30;;;;;;;;;;5020336;28;20543;-66
2021/12/18 00:58:12;;;;;;;39.30;21.47;;;;;;;;;;5038917;28;20179;-66
2021/12/18 01:00:40;;;;;;;42.27;23.40;;;;;;;;;;5038718;28;20186;-65
2021/12/18 01:03:15;;;;;;;39.67;21.67;;;;;;;;;;5020485;28;20199;-65
2021/12/18 01:05:41;;;;;;;40.67;22.97;;;;;;;;;;5019585;28;20174;-65
2021/12/18 01:08:07;;;;;;;44.23;23.83;;;;;;;;;;5037133;28;20199;-65
2021/12/18 01:10:52;;;;;;;45.90;24.17;;;;;;;;;;5037362;28;20310;-65
2021/12/18 01:13:23;;;;;;;39.93;23.20;;;;;;;;;;5037227;28;20686;-66
2021/12/18 01:15:52;;;;;;;41.37;23.23;;;;;;;;;;5037667;28;20159;-65
2021/12/18 01:23:48;;;;;;;42.93;22.70;;;;;;;;;;5037555;28;20222;-65
2021/12/18 01:26:14;;;;;;;38.00;21.17;;;;;;;;;;5037266;28;20362;-65
2021/12/18 01:28:40;;;;;;;42.60;21.83;;;;;;;;;;5037325;28;20325;-65
2021/12/18 01:31:08;;;;;;;35.07;20.73;;;;;;;;;;5020197;28;20190;-65
2021/12/18 01:33:34;;;;;;;39.30;20.23;;;;;;;;;;5037190;28;20183;-65
2021/12/18 01:36:01;;;;;;;37.33;21.10;;;;;;;;;;5058709;28;20163;-66
2021/12/18 01:38:29;;;;;;;38.97;22.00;;;;;;;;;;5039413;28;20743;-65
2021/12/18 01:40:55;;;;;;;40.43;20.70;;;;;;;;;;5019273;28;20241;-65
2021/12/18 01:46:16;;;;;;;43.53;21.10;;;;;;;;;;5036185;28;20557;-65
2021/12/18 01:51:24;;;;;;;37.73;21.50;;;;;;;;;;5036465;28;20179;-66
2021/12/18 01:53:54;;;;;;;41.87;21.97;;;;;;;;;;5035707;28;20191;-65
2021/12/18 01:56:21;;;;;;;43.80;22.40;;;;;;;;;;5018027;28;20168;-65
2021/12/18 01:58:48;;;;;;;43.83;24.20;;;;;;;;;;5036133;28;20245;-65
2021/12/18 02:01:15;;;;;;;50.70;25.50;;;;;;;;;;5017831;28;20183;-65
2021/12/18 02:03:41;;;;;;;46.30;25.03;;;;;;;;;;5018112;28;20207;-65
2021/12/18 02:06:07;;;;;;;47.77;25.37;;;;;;;;;;5017909;28;20266;-66
2021/12/18 02:08:35;;;;;;;46.43;26.07;;;;;;;;;;5035863;28;20644;-65
2021/12/18 02:11:12;;;;;;;45.90;25.10;;;;;;;;;;5017827;28;20175;-65
2021/12/18 02:21:53;;;;;;;32.30;19.00;;;;;;;;;;5035516;28;20218;-64
2021/12/18 02:24:22;;;;;;;34.07;21.37;;;;;;;;;;5035320;28;20214;-65
2021/12/18 02:26:49;;;;;;;34.33;21.83;;;;;;;;;;5035728;28;20187;-65
2021/12/18 02:29:16;;;;;;;31.97;21.20;;;;;;;;;;5035840;28;20362;-66
2021/12/18 02:31:42;;;;;;;29.73;19.57;;;;;;;;;;5018146;28;20179;-65
2021/12/18 02:34:15;;;;;;;29.10;17.67;;;;;;;;;;5038784;28;20194;-65
2021/12/18 02:36:49;;;;;;;33.50;18.60;;;;;;;;;;5037752;28;20151;-65
2021/12/18 02:39:41;;;;;;;28.07;18.00;;;;;;;;;;5026378;28;20175;-66
2021/12/18 02:42:19;;;;;;;25.60;17.23;;;;;;;;;;5018207;28;20594;-65
2021/12/18 02:44:46;;;;;;;24.03;16.70;;;;;;;;;;5017685;28;20179;-65
2021/12/18 02:47:12;;;;;;;24.03;16.37;;;;;;;;;;5035224;28;20179;-65
2021/12/18 02:49:49;;;;;;;31.83;20.00;;;;;;;;;;5035043;28;20180;-65
2021/12/18 02:52:15;;;;;;;34.27;21.37;;;;;;;;;;5035268;28;20191;-66
2021/12/18 02:54:42;;;;;;;36.33;21.30;;;;;;;;;;5034176;28;20179;-66
2021/12/18 02:57:08;;;;;;;34.53;21.53;;;;;;;;;;5035121;28;20245;-65
2021/12/18 02:59:44;;;;;;;35.93;22.97;;;;;;;;;;5017236;28;20179;-66
2021/12/18 03:02:10;;;;;;;35.30;21.73;;;;;;;;;;5034871;28;20179;-65
2021/12/18 03:04:38;;;;;;;34.73;21.80;;;;;;;;;;5035067;28;20175;-66
2021/12/18 03:07:07;;;;;;;30.03;19.93;;;;;;;;;;5017453;28;20181;-65
2021/12/18 03:25:29;;;;;;;30.50;20.83;;;;;;;;;;5034947;28;20177;-66
2021/12/18 03:27:58;;;;;;;32.20;21.00;;;;;;;;;;5034253;28;20209;-65
2021/12/18 03:30:24;;;;;;;35.43;22.20;;;;;;;;;;5034380;28;20171;-66
2021/12/18 03:32:50;;;;;;;34.43;22.23;;;;;;;;;;5034767;28;20197;-66
2021/12/18 03:35:16;;;;;;;34.10;21.73;;;;;;;;;;5034443;28;20175;-65
2021/12/18 03:37:42;;;;;;;33.27;21.50;;;;;;;;;;5016573;28;20181;-66
2021/12/18 03:40:10;;;;;;;34.70;22.70;;;;;;;;;;5034314;28;20261;-65
2021/12/18 03:42:36;;;;;;;36.00;23.50;;;;;;;;;;5016277;28;20230;-65
2021/12/18 03:45:03;;;;;;;40.63;23.93;;;;;;;;;;5034023;28;20179;-65
2021/12/18 03:47:29;;;;;;;40.60;23.87;;;;;;;;;;5033990;28;20202;-65
2021/12/18 03:49:55;;;;;;;37.97;23.03;;;;;;;;;;5034118;28;20179;-65
2021/12/18 03:52:21;;;;;;;35.37;21.63;;;;;;;;;;5015952;28;20199;-65
2021/12/18 03:54:47;;;;;;;35.60;22.60;;;;;;;;;;5015978;28;20183;-65
2021/12/18 03:57:13;;;;;;;35.13;21.43;;;;;;;;;;5015772;28;20229;-67
2021/12/18 03:59:39;;;;;;;33.60;20.40;;;;;;;;;;5033789;28;20203;-65
2021/12/18 04:02:05;;;;;;;34.73;21.23;;;;;;;;;;5033738;28;20229;-65
2021/12/18 04:04:31;;;;;;;32.33;19.00;;;;;;;;;;5033823;28;20221;-66
2021/12/18 04:06:57;;;;;;;31.07;18.83;;;;;;;;;;5037831;28;20179;-65
2021/12/18 04:09:23;;;;;;;33.17;19.83;;;;;;;;;;5020256;28;20240;-65
2021/12/18 04:11:49;;;;;;;29.63;17.73;;;;;;;;;;5037746;28;20631;-65
2021/12/18 04:14:17;;;;;;;24.83;16.40;;;;;;;;;;5038002;28;20203;-65
2021/12/18 04:16:43;;;;;;;22.90;14.97;;;;;;;;;;5019963;28;20171;-66
2021/12/18 04:19:10;;;;;;;24.87;14.97;;;;;;;;;;5037987;28;20175;-65
2021/12/18 04:21:36;;;;;;;27.40;15.87;;;;;;;;;;5038091;28;20551;-65
2021/12/18 04:24:03;;;;;;;23.43;15.50;;;;;;;;;;5019953;28;20207;-65
2021/12/18 04:26:29;;;;;;;21.63;14.80;;;;;;;;;;5019802;28;20215;-65
2021/12/18 04:28:55;;;;;;;24.20;15.13;;;;;;;;;;5037824;28;20210;-65
2021/12/18 04:31:21;;;;;;;23.40;16.17;;;;;;;;;;5019796;28;20179;-66
2021/12/18 04:33:47;;;;;;;23.40;14.97;;;;;;;;;;5038015;28;20716;-65
2021/12/18 04:36:13;;;;;;;22.80;13.83;;;;;;;;;;5037300;28;20521;-65
2021/12/18 04:38:39;;;;;;;20.63;13.03;;;;;;;;;;5037549;28;20175;-65
2021/12/18 04:41:06;;;;;;;20.63;12.20;;;;;;;;;;5037464;28;20179;-65
2021/12/18 04:43:31;;;;;;;19.70;12.63;;;;;;;;;;5037600;28;20230;-65
2021/12/18 04:45:57;;;;;;;20.47;12.37;;;;;;;;;;5037847;28;20642;-65
2021/12/18 04:48:23;;;;;;;19.17;11.30;;;;;;;;;;5038049;28;20214;-66
2021/12/18 04:50:50;;;;;;;20.83;11.63;;;;;;;;;;5037314;28;20183;-65
2021/12/18 04:53:15;;;;;;;20.53;12.17;;;;;;;;;;5019267;28;20622;-65
2021/12/18 04:55:41;;;;;;;19.20;11.40;;;;;;;;;;5019267;28;20270;-65
2021/12/18 04:58:07;;;;;;;20.70;12.00;;;;;;;;;;5019483;28;20197;-65
2021/12/18 05:00:38;;;;;;;20.00;10.40;;;;;;;;;;5037214;28;20183;-66
2021/12/18 05:03:06;;;;;;;20.23;10.63;;;;;;;;;;5024920;28;20293;-65
2021/12/18 05:05:34;;;;;;;21.00;10.73;;;;;;;;;;5040316;28;20179;-66
2021/12/18 05:08:00;;;;;;;18.97;11.10;;;;;;;;;;5020775;28;20674;-65
2021/12/18 05:10:26;;;;;;;18.57;10.93;;;;;;;;;;5040662;28;20175;-65
2021/12/18 05:12:52;;;;;;;19.33;11.20;;;;;;;;;;5029515;28;20678;-66
2021/12/18 05:15:18;;;;;;;18.53;11.00;;;;;;;;;;5046644;28;20175;-67
2021/12/18 05:17:44;;;;;;;20.43;11.40;;;;;;;;;;5026003;28;20190;-67
2021/12/18 05:20:10;;;;;;;15.70;10.30;;;;;;;;;;5047236;28;20357;-67
2021/12/18 05:22:36;;;;;;;18.03;9.73;;;;;;;;;;5048257;28;20210;-66
2021/12/18 05:25:03;;;;;;;17.03;10.50;;;;;;;;;;5047419;28;20175;-65
2021/12/18 05:27:29;;;;;;;16.57;9.20;;;;;;;;;;5045690;28;20214;-65
2021/12/18 05:29:55;;;;;;;17.70;10.07;;;;;;;;;;5029094;28;20175;-66
2021/12/18 05:32:21;;;;;;;15.10;9.40;;;;;;;;;;5050070;28;20191;-66
2021/12/18 05:34:47;;;;;;;16.93;9.37;;;;;;;;;;5054193;28;20177;-65
2021/12/18 05:37:31;;;;;;;18.40;9.40;;;;;;;;;;5050155;28;20632;-66
2021/12/18 05:40:01;;;;;;;16.53;9.93;;;;;;;;;;5031461;28;20179;-63
2021/12/18 05:42:27;;;;;;;16.33;9.53;;;;;;;;;;5045481;23;20258;-65
2021/12/18 05:44:52;;;;;;;18.07;9.70;;;;;;;;;;5023448;28;20222;-65
2021/12/18 05:47:19;;;;;;;15.53;9.60;;;;;;;;;;5022939;28;20553;-65
2021/12/18 05:49:45;;;;;;;18.80;9.83;;;;;;;;;;5021425;28;20191;-64
2021/12/18 05:52:11;;;;;;;16.40;9.17;;;;;;;;;;5023105;28;20192;-64
2021/12/18 05:54:37;;;;;;;16.07;9.50;;;;;;;;;;5023031;28;20204;-64
2021/12/18 05:57:04;;;;;;;19.53;10.17;;;;;;;;;;5022801;28;20184;-64
2021/12/18 05:59:30;;;;;;;14.27;9.10;;;;;;;;;;5022815;28;20180;-64
2021/12/18 06:01:56;;;;;;;15.50;9.53;;;;;;;;;;5022092;28;20564;-64
2021/12/18 06:04:22;;;;;;;21.17;11.30;;;;;;;;;;5023277;28;20554;-65
2021/12/18 06:06:47;;;;;;;15.67;10.03;;;;;;;;;;5021660;28;20570;-64
2021/12/18 06:09:13;;;;;;;17.33;10.53;;;;;;;;;;5022828;28;20247;-64
2021/12/18 06:11:41;;;;;;;18.57;10.20;;;;;;;;;;5022439;28;20578;-64
2021/12/18 06:14:07;;;;;;;17.07;9.83;;;;;;;;;;5022426;28;20523;-64
2021/12/18 06:16:33;;;;;;;16.23;9.47;;;;;;;;;;5023129;28;20179;-64
2021/12/18 06:18:59;;;;;;;18.57;10.00;;;;;;;;;;5022429;28;20261;-65
2021/12/18 06:21:25;;;;;;;19.83;11.03;;;;;;;;;;5020666;28;20298;-64
2021/12/18 06:23:52;;;;;;;19.70;10.00;;;;;;;;;;5021147;28;20238;-64
2021/12/18 06:26:19;;;;;;;22.60;12.00;;;;;;;;;;5020766;28;20564;-63
2021/12/18 06:28:45;;;;;;;22.90;13.30;;;;;;;;;;5021596;28;20667;-65
2021/12/18 06:31:11;;;;;;;22.60;13.17;;;;;;;;;;5022757;28;20287;-65
2021/12/18 06:33:37;;;;;;;23.83;13.30;;;;;;;;;;5020949;28;20211;-64
2021/12/18 06:36:03;;;;;;;25.60;13.57;;;;;;;;;;5022416;28;20238;-65
2021/12/18 06:38:29;;;;;;;21.47;13.33;;;;;;;;;;5022239;28;20175;-65
2021/12/18 06:40:55;;;;;;;23.03;13.37;;;;;;;;;;5022981;28;20222;-63
2021/12/18 06:43:21;;;;;;;26.20;14.00;;;;;;;;;;5021498;28;20596;-63
2021/12/18 06:45:47;;;;;;;25.63;14.60;;;;;;;;;;5021696;28;20176;-65
2021/12/18 06:48:13;;;;;;;25.70;14.27;;;;;;;;;;5022227;28;20246;-64
2021/12/18 06:50:39;;;;;;;22.03;13.57;;;;;;;;;;5021741;28;20187;-64
2021/12/18 06:53:06;;;;;;;27.33;14.43;;;;;;;;;;5021917;28;20180;-64
2021/12/18 06:55:32;;;;;;;29.43;14.80;;;;;;;;;;5020028;28;20187;-64
2021/12/18 06:57:58;;;;;;;27.43;14.63;;;;;;;;;;5021127;28;20179;-64
2021/12/18 07:00:25;;;;;;;26.07;13.87;;;;;;;;;;5020866;28;20172;-64
2021/12/18 07:02:51;;;;;;;22.90;12.20;;;;;;;;;;5021466;28;20658;-64
2021/12/18 07:05:17;;;;;;;26.30;14.73;;;;;;;;;;5020857;28;20187;-64
2021/12/18 07:07:43;;;;;;;44.53;28.00;;;;;;;;;;5020562;28;20671;-64
2021/12/18 07:10:11;;;;;;;29.53;18.27;;;;;;;;;;5019906;28;20247;-64
2021/12/18 07:12:37;;;;;;;26.67;14.07;;;;;;;;;;5020178;28;20176;-64
2021/12/18 07:15:07;;;;;;;27.70;13.60;;;;;;;;;;5019488;28;20176;-64
2021/12/18 07:17:33;;;;;;;25.07;13.27;;;;;;;;;;5020174;28;20184;-64
2021/12/18 07:19:59;;;;;;;24.90;12.43;;;;;;;;;;5019645;28;20180;-63
2021/12/18 07:22:25;;;;;;;27.70;13.13;;;;;;;;;;5015578;28;20750;-64
2021/12/18 07:24:51;;;;;;;25.57;12.73;;;;;;;;;;5016903;28;20183;-64
2021/12/18 07:27:17;;;;;;;24.03;14.17;;;;;;;;;;5017416;28;20179;-63
2021/12/18 07:29:43;;;;;;;27.67;13.37;;;;;;;;;;5017528;28;20187;-64
2021/12/18 07:32:09;;;;;;;28.60;14.43;;;;;;;;;;5016700;28;20192;-64
2021/12/18 07:34:35;;;;;;;24.17;13.37;;;;;;;;;;5016454;28;20186;-64
2021/12/18 07:37:01;;;;;;;29.20;14.50;;;;;;;;;;5015513;28;20294;-64
2021/12/18 07:39:27;;;;;;;30.00;13.53;;;;;;;;;;5015251;28;20215;-64
2021/12/18 07:41:53;;;;;;;28.33;15.60;;;;;;;;;;5017268;28;20251;-64
2021/12/18 07:44:19;;;;;;;31.13;16.07;;;;;;;;;;5019693;28;20198;-64
2021/12/18 07:46:45;;;;;;;30.50;14.40;;;;;;;;;;5020255;28;20660;-64
2021/12/18 07:49:11;;;;;;;26.27;14.37;;;;;;;;;;5020096;28;20226;-64
2021/12/18 07:51:37;;;;;;;26.20;13.47;;;;;;;;;;5019944;28;20252;-64
2021/12/18 07:54:04;;;;;;;28.17;13.17;;;;;;;;;;5018698;28;20183;-63
2021/12/18 07:56:30;;;;;;;23.33;11.17;;;;;;;;;;5020741;28;20207;-64
2021/12/18 07:58:56;;;;;;;22.30;11.20;;;;;;;;;;5020372;28;20180;-64
2021/12/18 08:01:22;;;;;;;20.10;10.00;;;;;;;;;;5020086;28;20208;-64
2021/12/18 08:03:49;;;;;;;21.47;10.23;;;;;;;;;;5019921;28;20186;-64
2021/12/18 08:06:15;;;;;;;16.20;8.30;;;;;;;;;;5018704;28;20180;-64
2021/12/18 08:08:41;;;;;;;19.83;8.23;;;;;;;;;;5019191;28;20210;-63
2021/12/18 08:11:07;;;;;;;16.30;8.30;;;;;;;;;;5020450;28;20679;-64
2021/12/18 08:13:33;;;;;;;16.83;8.57;;;;;;;;;;5019267;28;20579;-65
2021/12/18 08:15:59;;;;;;;18.97;8.03;;;;;;;;;;5018064;28;20176;-64
2021/12/18 08:18:24;;;;;;;12.60;7.27;;;;;;;;;;5019730;28;20261;-64
2021/12/18 08:20:51;;;;;;;14.77;7.83;;;;;;;;;;5018686;28;20293;-64
2021/12/18 08:23:17;;;;;;;13.33;6.77;;;;;;;;;;5018881;28;20270;-64
2021/12/18 08:25:43;;;;;;;11.50;7.37;;;;;;;;;;5018830;28;20188;-64
2021/12/18 08:28:09;;;;;;;13.03;7.40;;;;;;;;;;5020522;28;20207;-64
2021/12/18 08:30:37;;;;;;;11.40;6.80;;;;;;;;;;5019496;28;20196;-64
2021/12/18 08:33:03;;;;;;;10.27;7.00;;;;;;;;;;5018120;28;20184;-65
2021/12/18 08:35:31;;;;;;;12.60;7.17;;;;;;;;;;5020242;28;20358;-64
2021/12/18 08:37:57;;;;;;;15.40;8.57;;;;;;;;;;5019136;28;20188;-66
2021/12/18 08:40:24;;;;;;;12.67;7.90;;;;;;;;;;5019784;28;20387;-66
2021/12/18 08:42:49;;;;;;;14.40;8.10;;;;;;;;;;5019469;28;20672;-64
2021/12/18 08:45:16;;;;;;;14.40;8.97;;;;;;;;;;5020147;28;20191;-64
2021/12/18 08:47:42;;;;;;;13.20;8.53;;;;;;;;;;5019884;28;20202;-64
2021/12/18 08:50:10;;;;;;;19.40;12.17;;;;;;;;;;5018290;28;20663;-64
2021/12/18 08:52:36;;;;;;;21.40;14.60;;;;;;;;;;5023147;28;20180;-65
2021/12/18 08:55:03;;;;;;;39.00;24.23;;;;;;;;;;5024149;28;20180;-63
2021/12/18 08:57:29;;;;;;;23.53;14.17;;;;;;;;;;5023863;28;20194;-63
2021/12/18 08:59:55;;;;;;;27.40;17.70;;;;;;;;;;5022663;28;20180;-64
2021/12/18 09:02:21;;;;;;;27.10;17.97;;;;;;;;;;5022326;28;20215;-65
2021/12/18 09:04:48;;;;;;;18.87;12.87;;;;;;;;;;5024212;28;20180;-64
2021/12/18 09:07:14;;;;;;;26.80;16.70;;;;;;;;;;5022238;28;20187;-64
2021/12/18 09:09:40;;;;;;;18.37;9.40;;;;;;;;;;5024168;28;20176;-64
2021/12/18 09:12:06;;;;;;;19.33;10.53;;;;;;;;;;5023062;28;20204;-63
2021/12/18 09:14:32;;;;;;;17.67;9.97;;;;;;;;;;5023272;28;20180;-63
2021/12/18 09:16:59;;;;;;;19.93;11.53;;;;;;;;;;5023392;28;20184;-64
2021/12/18 09:19:24;;;;;;;17.40;11.13;;;;;;;;;;5022831;28;20183;-65
2021/12/18 09:21:50;;;;;;;15.53;9.80;;;;;;;;;;5024162;28;20230;-64
2021/12/18 09:24:16;;;;;;;16.33;9.40;;;;;;;;;;5024560;28;20206;-64
2021/12/18 09:26:42;;;;;;;15.10;7.97;;;;;;;;;;5024520;28;20693;-64
2021/12/18 09:29:08;;;;;;;14.13;8.30;;;;;;;;;;5023092;28;20680;-65
2021/12/18 09:31:34;;;;;;;15.33;8.03;;;;;;;;;;5024061;28;20195;-64
2021/12/18 09:34:01;;;;;;;18.43;8.73;;;;;;;;;;5024128;28;20189;-63
2021/12/18 09:36:27;;;;;;;18.00;8.23;;;;;;;;;;5022751;28;20207;-64
2021/12/18 09:38:53;;;;;;;16.70;7.73;;;;;;;;;;5023952;28;20191;-64
2021/12/18 09:41:19;;;;;;;20.97;8.97;;;;;;;;;;5022040;28;20220;-64
2021/12/18 09:43:45;;;;;;;19.73;9.37;;;;;;;;;;5022505;28;20186;-64
2021/12/18 09:46:13;;;;;;;14.23;7.90;;;;;;;;;;5023692;28;20624;-64
2021/12/18 09:48:41;;;;;;;14.37;8.53;;;;;;;;;;5023166;28;20660;-64
2021/12/18 09:51:12;;;;;;;17.27;7.70;;;;;;;;;;5022193;28;20203;-65
2021/12/18 09:53:39;;;;;;;12.50;7.73;;;;;;;;;;5021229;28;20234;-65
2021/12/18 09:56:06;;;;;;;15.20;7.57;;;;;;;;;;5022838;28;20176;-65
2021/12/18 09:58:32;;;;;;;10.90;7.83;;;;;;;;;;5023085;28;20628;-65
2021/12/18 10:00:58;;;;;;;15.43;8.50;;;;;;;;;;5022785;28;20195;-64
2021/12/18 10:03:43;;;;;;;14.80;7.70;;;;;;;;;;5020679;28;20190;-64
2021/12/18 10:06:28;;;;;;;12.07;7.10;;;;;;;;;;5019886;28;20223;-65
2021/12/18 10:08:54;;;;;;;15.77;9.17;;;;;;;;;;5019114;28;20204;-63
2021/12/18 10:11:20;;;;;;;12.57;7.53;;;;;;;;;;5019910;28;20267;-64
2021/12/18 10:13:50;;;;;;;12.30;6.70;;;;;;;;;;5021467;28;20694;-65
2021/12/18 10:16:16;;;;;;;9.33;5.60;;;;;;;;;;5019857;28;20182;-65
2021/12/18 10:18:42;;;;;;;8.63;4.90;;;;;;;;;;5020826;28;20190;-66
2021/12/18 10:21:09;;;;;;;7.63;4.63;;;;;;;;;;5019801;28;20200;-64
2021/12/18 10:23:35;;;;;;;5.00;3.83;;;;;;;;;;5020443;28;20213;-65
2021/12/18 10:26:01;;;;;;;5.00;3.57;;;;;;;;;;5020394;28;20187;-63
2021/12/18 10:28:42;;;;;;;7.80;4.40;;;;;;;;;;5018329;28;20204;-65
2021/12/18 10:31:07;;;;;;;6.37;3.67;;;;;;;;;;5020464;28;20254;-65
2021/12/18 10:33:35;;;;;;;5.70;3.60;;;;;;;;;;5020882;28;20175;-64
2021/12/18 10:36:02;;;;;;;6.20;4.10;;;;;;;;;;5020887;28;20598;-64
2021/12/18 10:38:45;;;;;;;5.63;4.27;;;;;;;;;;5019722;28;20211;-65
2021/12/18 10:41:31;;;;;;;9.40;4.73;;;;;;;;;;5020996;28;20216;-63
2021/12/18 10:43:59;;;;;;;12.30;5.07;;;;;;;;;;5020313;28;20632;-64
2021/12/18 10:46:26;;;;;;;9.03;4.20;;;;;;;;;;5018680;28;20187;-64
2021/12/18 10:49:00;;;;;;;10.23;4.33;;;;;;;;;;5016963;28;20730;-64
2021/12/18 10:51:27;;;;;;;9.93;4.50;;;;;;;;;;5018629;28;20195;-64
2021/12/18 10:53:58;;;;;;;10.27;4.90;;;;;;;;;;5017724;28;20651;-64
2021/12/18 10:56:37;;;;;;;9.63;5.50;;;;;;;;;;5018815;28;20164;-64
2021/12/18 10:59:06;;;;;;;10.33;5.43;;;;;;;;;;5019274;28;20180;-64
2021/12/18 11:01:33;;;;;;;15.03;7.07;;;;;;;;;;5017709;28;20227;-64
2021/12/18 11:03:59;;;;;;;17.60;7.23;;;;;;;;;;5018123;28;20194;-64
2021/12/18 11:06:26;;;;;;;13.37;6.30;;;;;;;;;;5018602;28;20175;-64
2021/12/18 11:09:10;;;;;;;21.30;8.43;;;;;;;;;;5019153;28;20690;-64
2021/12/18 11:14:18;;;;;;;27.30;10.83;;;;;;;;;;5018210;28;20175;-65
2021/12/18 11:16:48;;;;;;;27.70;11.43;;;;;;;;;;5018110;28;20172;-64
2021/12/18 11:19:16;;;;;;;32.57;11.77;;;;;;;;;;5018356;28;20183;-65
2021/12/18 11:22:02;;;;;;;28.33;11.07;;;;;;;;;;5017620;28;20225;-64
2021/12/18 11:24:50;;;;;;;28.50;11.57;;;;;;;;;;5012317;28;20195;-64
2021/12/18 11:27:17;;;;;;;29.20;12.43;;;;;;;;;;5018613;28;20180;-65
2021/12/18 11:29:54;;;;;;;21.77;9.53;;;;;;;;;;5018133;28;20569;-64
2021/12/18 11:32:21;;;;;;;15.93;7.87;;;;;;;;;;5018628;28;20201;-65
2021/12/18 11:34:49;;;;;;;16.30;7.50;;;;;;;;;;5018802;28;20208;-64
2021/12/18 11:37:16;;;;;;;15.93;6.80;;;;;;;;;;5017780;28;20202;-64
2021/12/18 11:39:44;;;;;;;16.10;7.17;;;;;;;;;;5018881;28;20258;-63
2021/12/18 11:42:10;;;;;;;16.67;7.60;;;;;;;;;;5018822;28;20199;-64
2021/12/18 11:44:41;;;;;;;14.60;7.20;;;;;;;;;;5018286;28;20191;-64
2021/12/18 11:47:19;;;;;;;14.03;6.30;;;;;;;;;;5019628;28;20168;-64
2021/12/18 11:49:44;;;;;;;12.63;5.80;;;;;;;;;;5018224;28;20187;-65
2021/12/18 11:52:11;;;;;;;10.83;5.97;;;;;;;;;;5019723;28;20199;-64
2021/12/18 11:54:55;;;;;;;11.90;5.50;;;;;;;;;;5018618;28;20210;-65
2021/12/18 11:57:40;;;;;;;15.23;6.23;;;;;;;;;;5018407;28;20199;-63
2021/12/18 12:00:07;;;;;;;11.60;5.87;;;;;;;;;;5019994;28;20198;-64
2021/12/18 12:03:03;;;;;;;16.73;7.30;;;;;;;;;;5021604;28;20204;-64
2021/12/18 12:05:36;;;;;;;17.77;8.20;;;;;;;;;;5015161;28;20255;-64
2021/12/18 12:08:18;;;;;;;20.40;8.90;;;;;;;;;;5023692;28;20200;-61
2021/12/18 12:11:03;;;;;;;19.27;8.37;;;;;;;;;;5020875;28;20199;-66
2021/12/18 12:13:48;;;;;;;21.43;8.70;;;;;;;;;;5020763;28;20694;-65
2021/12/18 12:16:14;;;;;;;20.30;9.07;;;;;;;;;;5018535;28;20534;-64
2021/12/18 12:18:59;;;;;;;28.47;10.10;;;;;;;;;;5016314;28;20190;-65
2021/12/18 12:21:41;;;;;;;22.67;8.50;;;;;;;;;;5017632;28;20207;-65
2021/12/18 12:24:08;;;;;;;23.87;9.17;;;;;;;;;;5020079;28;20183;-64
2021/12/18 12:26:34;;;;;;;23.47;9.53;;;;;;;;;;5022196;28;20180;-64
2021/12/18 12:29:01;;;;;;;24.77;10.13;;;;;;;;;;5023575;28;20683;-63
2021/12/18 12:31:28;;;;;;;27.67;10.60;;;;;;;;;;5025306;28;20200;-64
2021/12/18 12:34:13;;;;;;;22.20;9.47;;;;;;;;;;5022785;28;20271;-65
2021/12/18 12:36:45;;;;;;;15.87;6.50;;;;;;;;;;5023487;28;20176;-66
2021/12/18 12:39:11;;;;;;;17.90;6.93;;;;;;;;;;5023462;28;20199;-64
2021/12/18 12:41:47;;;;;;;14.27;5.57;;;;;;;;;;5023409;28;20592;-65
2021/12/18 12:44:31;;;;;;;11.47;6.60;;;;;;;;;;5024055;28;20634;-65
2021/12/18 12:47:15;;;;;;;11.00;5.60;;;;;;;;;;5022695;28;20207;-65
2021/12/18 12:49:41;;;;;;;15.03;7.13;;;;;;;;;;5020711;28;20546;-63
2021/12/18 12:52:08;;;;;;;15.00;7.20;;;;;;;;;;5021124;28;20729;-65
2021/12/18 12:54:40;;;;;;;13.90;7.10;;;;;;;;;;5021431;28;20310;-66
2021/12/18 12:57:22;;;;;;;10.93;6.67;;;;;;;;;;5020872;28;20180;-65
2021/12/18 12:59:48;;;;;;;13.37;5.57;;;;;;;;;;5022223;28;20183;-65
2021/12/18 13:02:14;;;;;;;10.27;6.20;;;;;;;;;;5022663;28;20656;-65
2021/12/18 13:04:40;;;;;;;10.80;6.53;;;;;;;;;;5022021;28;20176;-65
2021/12/18 13:07:07;;;;;;;15.10;7.80;;;;;;;;;;5023089;28;20172;-64
2021/12/18 13:09:37;;;;;;;15.00;6.97;;;;;;;;;;5020087;28;20206;-65
2021/12/18 13:12:04;;;;;;;18.60;7.90;;;;;;;;;;5021712;28;20196;-65
2021/12/18 13:14:36;;;;;;;12.20;6.77;;;;;;;;;;5020995;28;20589;-65
2021/12/18 13:17:15;;;;;;;13.87;6.53;;;;;;;;;;5021071;28;20176;-63
2021/12/18 13:19:52;;;;;;;16.40;7.17;;;;;;;;;;5021481;28;20300;-64
2021/12/18 13:22:18;;;;;;;15.53;7.67;;;;;;;;;;5020939;28;20230;-64
2021/12/18 13:24:44;;;;;;;20.93;8.57;;;;;;;;;;5020770;28;20290;-64
2021/12/18 13:27:11;;;;;;;23.87;9.97;;;;;;;;;;5020171;28;20191;-65
2021/12/18 13:29:37;;;;;;;23.47;10.33;;;;;;;;;;5021101;28;20291;-63
2021/12/18 13:32:05;;;;;;;25.63;11.53;;;;;;;;;;5021447;28;20234;-64
2021/12/18 13:34:32;;;;;;;28.03;11.73;;;;;;;;;;5021678;28;20186;-64
2021/12/18 13:36:59;;;;;;;27.50;11.70;;;;;;;;;;5020060;28;20180;-64
2021/12/18 13:39:27;;;;;;;26.73;12.37;;;;;;;;;;5021350;28;20183;-64
2021/12/18 13:41:57;;;;;;;29.03;12.33;;;;;;;;;;5020685;28;20215;-63
2021/12/18 13:44:23;;;;;;;29.97;14.17;;;;;;;;;;5019844;28;20263;-64
2021/12/18 13:46:49;;;;;;;29.43;13.07;;;;;;;;;;5019846;28;20211;-65
2021/12/18 13:49:15;;;;;;;21.87;11.80;;;;;;;;;;5019222;28;20230;-63
2021/12/18 13:51:41;;;;;;;17.40;8.87;;;;;;;;;;5019433;28;20207;-65
2021/12/18 13:54:07;;;;;;;18.37;10.30;;;;;;;;;;5020684;28;20176;-64
2021/12/18 13:56:38;;;;;;;17.17;9.23;;;;;;;;;;5018969;28;20183;-64
2021/12/18 13:59:14;;;;;;;15.80;8.70;;;;;;;;;;5021621;28;20184;-65
2021/12/18 14:01:40;;;;;;;17.67;10.40;;;;;;;;;;5019642;28;20212;-65
2021/12/18 14:04:13;;;;;;;21.47;12.70;;;;;;;;;;5020330;28;20180;-63
2021/12/18 14:06:41;;;;;;;20.10;11.07;;;;;;;;;;5020230;28;20165;-65
2021/12/18 14:09:11;;;;;;;22.13;12.73;;;;;;;;;;5018585;28;20203;-62
2021/12/18 14:11:41;;;;;;;20.33;12.67;;;;;;;;;;5018034;28;20619;-65
2021/12/18 14:14:09;;;;;;;20.77;12.90;;;;;;;;;;5020299;28;20157;-65
2021/12/18 14:16:35;;;;;;;19.33;12.43;;;;;;;;;;5020106;28;20259;-65
2021/12/18 14:19:03;;;;;;;18.77;11.57;;;;;;;;;;5020713;28;20187;-65
2021/12/18 14:21:33;;;;;;;9.60;6.97;;;;;;;;;;5020481;28;20207;-64
2021/12/18 14:24:00;;;;;;;5.50;4.90;;;;;;;;;;5019616;28;20183;-65
2021/12/18 14:26:27;;;;;;;7.77;5.63;;;;;;;;;;5020056;28;20184;-63
2021/12/18 14:28:56;;;;;;;10.07;5.77;;;;;;;;;;5021049;28;20204;-64
2021/12/18 14:31:30;;;;;;;6.90;5.53;;;;;;;;;;5021738;28;20192;-65
2021/12/18 14:33:57;;;;;;;8.17;6.27;;;;;;;;;;5020344;28;20214;-65
2021/12/18 14:36:44;;;;;;;7.63;5.53;;;;;;;;;;5020310;28;20176;-63
2021/12/18 14:39:24;;;;;;;9.30;7.17;;;;;;;;;;5020806;28;20249;-64
2021/12/18 14:41:51;;;;;;;17.27;10.93;;;;;;;;;;5020110;28;20605;-73
2021/12/18 14:44:17;;;;;;;14.90;8.03;;;;;;;;;;5020213;28;20180;-65
2021/12/18 14:46:43;;;;;;;10.37;7.07;;;;;;;;;;5020320;28;20529;-67
2021/12/18 14:49:13;;;;;;;8.33;6.50;;;;;;;;;;5020311;28;20200;-63
2021/12/18 14:51:42;;;;;;;13.37;9.07;;;;;;;;;;5019158;28;20200;-64
2021/12/18 14:54:08;;;;;;;10.23;7.57;;;;;;;;;;5019085;28;20184;-65
2021/12/18 14:56:34;;;;;;;9.87;7.13;;;;;;;;;;5019646;28;20235;-64
2021/12/18 14:59:01;;;;;;;12.53;7.63;;;;;;;;;;5020165;28;20187;-64
2021/12/18 15:01:27;;;;;;;7.53;6.00;;;;;;;;;;5018265;28;20211;-64
2021/12/18 15:03:54;;;;;;;7.40;6.23;;;;;;;;;;5018944;28;20180;-63
2021/12/18 15:06:20;;;;;;;8.23;6.50;;;;;;;;;;5019100;28;20348;-63
2021/12/18 15:08:49;;;;;;;9.37;6.57;;;;;;;;;;5019165;28;20274;-64
2021/12/18 15:11:15;;;;;;;7.07;5.17;;;;;;;;;;5020357;28;20302;-63